Time;durP1;ratioP1;P1;durP2;ratioP2;P2;SDS_P1;SDS_P2;PMS_P1;PMS_P2;Temp;Humidity;BMP_temperature;BMP_pressure;BME280_temperature;BME280_humidity;BME280_pressure;Samples;Min_cycle;Max_cycle;Signal;HPM_P1;HPM_P2
2021/12/07 00:00:19;;;;;;;7.53;5.60;;;;;;;4.85;64.72;99849.88;687887;28;1158;-84
2021/12/07 00:00:40;;;;;;;6.72;5.65;;;;;;;4.85;64.95;99857.66;682668;29;1169;-84
2021/12/07 00:01:01;;;;;;;6.27;5.30;;;;;;;4.84;64.85;99857.59;682658;29;821;-84
2021/12/07 00:01:22;;;;;;;5.32;4.80;;;;;;;4.85;64.87;99854.19;684624;28;1427;-84
2021/12/07 00:01:43;;;;;;;5.25;4.60;;;;;;;4.86;64.91;99855.94;685320;28;1120;-85
2021/12/07 00:02:07;;;;;;;5.50;4.90;;;;;;;4.86;65.23;99866.28;684938;28;1419;-86
2021/12/07 00:02:28;;;;;;;6.25;5.13;;;;;;;4.76;65.46;99854.72;687965;28;1124;-84
2021/12/07 00:02:49;;;;;;;6.47;5.13;;;;;;;4.77;65.14;99857.38;689222;28;1338;-85
2021/12/07 00:03:09;;;;;;;6.45;5.20;;;;;;;4.78;65.27;99858.25;691140;28;1284;-84
2021/12/07 00:03:30;;;;;;;6.53;5.43;;;;;;;4.76;65.35;99844.38;687894;28;740;-84
2021/12/07 00:03:52;;;;;;;6.40;5.53;;;;;;;4.87;65.17;99863.78;688845;28;997;-84
2021/12/07 00:04:13;;;;;;;7.57;5.55;;;;;;;4.82;65.49;99859.22;686960;28;1220;-84
2021/12/07 00:04:42;;;;;;;7.50;5.45;;;;;;;4.85;65.51;99870.56;688214;28;740;-84
2021/12/07 00:05:03;;;;;;;6.85;5.40;;;;;;;4.77;65.57;99851.31;687983;28;1068;-84
2021/12/07 00:05:24;;;;;;;6.53;5.22;;;;;;;4.78;65.51;99850.50;686939;28;1124;-84
2021/12/07 00:05:45;;;;;;;5.68;5.00;;;;;;;4.76;65.68;99849.56;692193;28;1977;-84
2021/12/07 00:06:06;;;;;;;5.78;5.00;;;;;;;4.83;65.83;99867.06;693333;28;1094;-84
2021/12/07 00:06:27;;;;;;;5.43;4.93;;;;;;;4.78;65.80;99859.13;686149;28;1203;-84
2021/12/07 00:06:47;;;;;;;5.32;4.82;;;;;;;4.76;66.09;99855.63;688020;28;1013;-84
2021/12/07 00:07:08;;;;;;;5.67;5.10;;;;;;;4.71;66.18;99869.22;682375;28;1170;-84
2021/12/07 00:07:29;;;;;;;5.97;5.37;;;;;;;4.75;65.74;99860.72;682675;28;1401;-84
2021/12/07 00:07:50;;;;;;;5.95;5.35;;;;;;;4.74;66.01;99857.28;688043;28;1103;-84
2021/12/07 00:08:11;;;;;;;5.75;5.13;;;;;;;4.79;66.10;99860.03;689937;28;1105;-84
2021/12/07 00:08:31;;;;;;;5.82;4.88;;;;;;;4.70;66.21;99844.16;687597;28;1193;-84
2021/12/07 00:08:54;;;;;;;6.28;5.05;;;;;;;4.73;66.42;99858.06;687605;28;1207;-84
2021/12/07 00:09:17;;;;;;;5.65;4.97;;;;;;;4.77;66.00;99856.47;685097;28;1933;-84
2021/12/07 00:09:38;;;;;;;5.47;4.90;;;;;;;4.77;66.42;99861.66;686086;28;851;-84
2021/12/07 00:09:58;;;;;;;5.30;4.80;;;;;;;4.67;66.38;99837.19;687878;28;1220;-83
2021/12/07 00:10:19;;;;;;;5.40;4.90;;;;;;;4.68;66.34;99845.81;688610;28;1511;-83
2021/12/07 00:10:41;;;;;;;5.68;5.07;;;;;;;4.66;66.68;99840.56;689896;28;2061;-84
2021/12/07 00:11:03;;;;;;;5.63;5.10;;;;;;;4.70;66.38;99849.31;689444;28;1489;-84
2021/12/07 00:11:27;;;;;;;5.45;4.95;;;;;;;4.76;66.42;99865.97;689945;28;2005;-84
2021/12/07 00:11:49;;;;;;;4.95;4.45;;;;;;;4.70;66.38;99849.31;692612;28;1241;-84
2021/12/07 00:12:10;;;;;;;5.20;4.70;;;;;;;4.69;66.70;99847.56;690557;28;1378;-84
2021/12/07 00:12:35;;;;;;;5.15;4.65;;;;;;;4.70;66.43;99855.38;685321;28;740;-84
2021/12/07 00:12:57;;;;;;;5.07;4.57;;;;;;;4.65;66.42;99847.47;685156;28;1245;-84
2021/12/07 00:13:19;;;;;;;5.10;4.60;;;;;;;4.72;66.62;99860.63;689439;28;1214;-84
2021/12/07 00:13:42;;;;;;;5.68;4.75;;;;;;;4.71;66.52;99853.69;687590;28;1375;-84
2021/12/07 00:14:11;;;;;;;5.80;5.00;;;;;;;4.65;66.67;99844.00;687780;28;1419;-84
2021/12/07 00:14:38;;;;;;;6.38;5.10;;;;;;;4.69;66.88;99847.56;687911;28;963;-84
2021/12/07 00:15:02;;;;;;;6.70;5.20;;;;;;;4.70;66.90;99849.31;682536;29;1295;-83
2021/12/07 00:15:24;;;;;;;6.10;5.20;;;;;;;4.69;66.85;99850.16;689933;28;1310;-83
2021/12/07 00:15:44;;;;;;;5.93;5.30;;;;;;;4.65;66.93;99841.41;693330;28;1200;-83
2021/12/07 00:16:28;;;;;;;6.28;5.40;;;;;;;4.74;67.00;99851.22;687681;28;1375;-84
2021/12/07 00:16:51;;;;;;;6.20;4.85;;;;;;;4.69;67.35;99847.56;685042;28;1615;-84
2021/12/07 00:17:13;;;;;;;6.40;5.10;;;;;;;4.69;67.13;99847.56;685827;28;1168;-84
2021/12/07 00:17:34;;;;;;;6.38;5.30;;;;;;;4.74;67.11;99856.38;684976;28;1661;-84
2021/12/07 00:17:55;;;;;;;5.93;5.32;;;;;;;4.76;66.88;99854.72;687741;28;1283;-83
2021/12/07 00:18:16;;;;;;;5.90;5.30;;;;;;;4.65;67.07;99852.63;686683;28;1202;-84
2021/12/07 00:18:57;;;;;;;5.72;5.10;;;;;;;4.77;67.02;99862.56;685778;28;780;-83
2021/12/07 00:19:19;;;;;;;6.45;5.15;;;;;;;4.70;67.21;99857.06;686433;28;1234;-83
2021/12/07 00:19:40;;;;;;;6.72;5.32;;;;;;;4.66;67.23;99843.16;686066;28;1393;-83
2021/12/07 00:20:04;;;;;;;7.25;5.55;;;;;;;4.70;66.78;99851.91;685277;28;903;-83
2021/12/07 00:20:25;;;;;;;5.70;5.05;;;;;;;4.73;67.05;99864.97;685125;28;1243;-83
2021/12/07 00:20:45;;;;;;;5.70;5.10;;;;;;;4.71;67.26;99840.78;686873;28;1312;-84
2021/12/07 00:21:19;;;;;;;5.30;4.80;;;;;;;4.82;66.94;99859.22;692175;28;772;-84
2021/12/07 00:21:59;;;;;;;5.70;4.57;;;;;;;4.75;66.99;99843.53;693025;28;696;-84
2021/12/07 00:22:40;;;;;;;5.25;4.43;;;;;;;4.77;67.16;99852.22;684104;28;1125;-84
2021/12/07 00:23:06;;;;;;;5.25;4.50;;;;;;;4.81;66.90;99852.31;688053;28;800;-83
2021/12/07 00:23:47;;;;;;;4.88;4.40;;;;;;;4.78;67.13;99859.13;682547;29;890;-84
2021/12/07 00:24:09;;;;;;;5.10;4.60;;;;;;;4.78;67.10;99858.25;682076;29;1345;-84
2021/12/07 00:24:29;;;;;;;5.57;4.70;;;;;;;4.82;67.27;99865.28;684016;28;832;-83
2021/12/07 00:24:50;;;;;;;4.82;4.32;;;;;;;4.80;67.15;99861.78;686298;28;1184;-84
2021/12/07 00:25:13;;;;;;;4.80;4.35;;;;;;;4.76;67.03;99844.38;685435;28;1108;-84
2021/12/07 00:25:35;;;;;;;5.05;4.60;;;;;;;4.78;67.11;99853.97;685263;28;812;-84
2021/12/07 00:25:55;;;;;;;5.38;4.88;;;;;;;4.83;66.94;99861.88;684483;28;1911;-84
2021/12/07 00:26:16;;;;;;;5.43;4.87;;;;;;;4.75;67.23;99847.81;687674;28;1313;-84
2021/12/07 00:26:38;;;;;;;5.68;4.93;;;;;;;4.82;66.94;99849.78;686402;28;843;-83
2021/12/07 00:26:59;;;;;;;5.30;4.80;;;;;;;4.80;67.06;99848.88;690507;28;1353;-84
2021/12/07 00:27:20;;;;;;;5.13;4.63;;;;;;;4.82;67.03;99859.22;691545;28;1214;-84
2021/12/07 00:27:41;;;;;;;4.90;4.50;;;;;;;4.81;67.22;99857.47;690032;28;1190;-85
2021/12/07 00:28:02;;;;;;;4.70;4.30;;;;;;;4.76;67.30;99849.56;690531;28;1396;-84
2021/12/07 00:28:24;;;;;;;5.10;4.60;;;;;;;4.81;67.17;99852.31;687747;28;1056;-84
2021/12/07 00:28:45;;;;;;;5.30;4.70;;;;;;;4.82;67.26;99859.22;687736;28;1339;-84
2021/12/07 00:29:06;;;;;;;5.22;4.72;;;;;;;4.79;66.90;99847.97;685049;28;1077;-84
2021/12/07 00:29:30;;;;;;;4.80;4.30;;;;;;;4.77;67.72;99843.56;684664;28;1248;-84
2021/12/07 00:29:50;;;;;;;4.68;4.28;;;;;;;4.75;67.19;99842.63;687844;28;1044;-84
2021/12/07 00:30:17;;;;;;;4.80;4.30;;;;;;;4.80;67.54;99856.63;689651;28;1491;-84
2021/12/07 00:30:37;;;;;;;5.00;4.50;;;;;;;4.78;67.09;99853.06;690539;28;1092;-84
2021/12/07 00:31:09;;;;;;;4.95;4.45;;;;;;;4.76;67.46;99846.97;690092;28;1029;-84
2021/12/07 00:31:38;;;;;;;5.10;4.60;;;;;;;4.75;67.32;99842.63;690680;28;886;-84
2021/12/07 00:32:43;;;;;;;7.10;4.90;;;;;;;4.81;67.37;99848.03;685673;28;1346;-84
2021/12/07 00:33:40;;;;;;;5.28;4.78;;;;;;;4.85;67.33;99849.03;687805;28;1108;-84
2021/12/07 00:35:14;;;;;;;5.00;4.50;;;;;;;4.79;67.64;99836.75;685429;28;1442;-84
2021/12/07 00:35:35;;;;;;;5.00;4.40;;;;;;;4.82;67.52;99844.63;690509;28;1167;-83
2021/12/07 00:35:56;;;;;;;5.43;4.80;;;;;;;4.82;67.55;99847.22;687756;28;973;-84
2021/12/07 00:36:17;;;;;;;6.07;5.18;;;;;;;4.84;67.29;99848.13;687866;28;1126;-84
2021/12/07 00:36:44;;;;;;;6.45;5.30;;;;;;;4.76;67.31;99834.94;687881;28;1272;-84
2021/12/07 00:37:05;;;;;;;5.90;5.10;;;;;;;4.84;67.47;99848.13;687884;28;1249;-84
2021/12/07 00:37:30;;;;;;;5.25;4.75;;;;;;;4.84;67.49;99847.28;685785;28;1572;-84
2021/12/07 00:37:54;;;;;;;5.13;4.50;;;;;;;4.81;67.40;99849.72;690244;28;1335;-83
2021/12/07 00:38:18;;;;;;;5.00;4.50;;;;;;;4.82;67.66;99849.78;688917;28;1276;-84
2021/12/07 00:38:40;;;;;;;5.03;4.53;;;;;;;4.84;67.92;99855.88;687926;28;1335;-84
2021/12/07 00:39:00;;;;;;;5.60;4.78;;;;;;;4.73;67.49;99833.94;689267;28;1788;-84
2021/12/07 00:39:23;;;;;;;6.03;4.80;;;;;;;4.75;67.98;99851.28;687415;28;1481;-84
2021/12/07 00:39:44;;;;;;;5.80;4.90;;;;;;;4.79;67.92;99855.72;685666;28;1985;-84
2021/12/07 00:40:09;;;;;;;5.43;4.80;;;;;;;4.82;67.90;99848.91;687993;28;1295;-84
2021/12/07 00:40:31;;;;;;;5.65;4.80;;;;;;;4.83;67.67;99856.72;684151;28;864;-84
2021/12/07 00:40:54;;;;;;;5.50;4.45;;;;;;;4.91;67.47;99865.63;690444;28;964;-84
2021/12/07 00:41:14;;;;;;;4.93;4.22;;;;;;;4.82;67.61;99844.63;683991;28;1271;-84
2021/12/07 00:41:35;;;;;;;4.78;4.30;;;;;;;4.90;67.74;99856.13;682545;29;1275;-84
2021/12/07 00:41:58;;;;;;;5.03;4.53;;;;;;;4.90;67.41;99850.94;682489;29;1279;-84
2021/12/07 00:42:19;;;;;;;5.05;4.55;;;;;;;4.92;67.54;99846.69;685662;28;1172;-83
2021/12/07 00:42:40;;;;;;;5.38;4.88;;;;;;;4.99;67.30;99858.16;687745;28;1212;-84
2021/12/07 00:43:01;;;;;;;5.65;5.15;;;;;;;4.99;67.46;99854.69;687998;28;1303;-84
2021/12/07 00:43:21;;;;;;;5.88;5.30;;;;;;;4.92;67.42;99851.00;689826;28;1241;-84
2021/12/07 00:43:42;;;;;;;5.60;5.10;;;;;;;4.82;67.61;99847.22;685173;28;1109;-84
2021/12/07 00:44:04;;;;;;;5.70;5.10;;;;;;;4.81;67.52;99845.44;687378;28;1526;-84
2021/12/07 00:44:26;;;;;;;5.38;4.88;;;;;;;4.80;67.90;99851.44;685775;28;1271;-84
2021/12/07 00:44:47;;;;;;;6.05;4.80;;;;;;;4.84;67.51;99848.13;682466;28;1108;-84
2021/12/07 00:45:08;;;;;;;5.68;4.75;;;;;;;4.80;67.92;99851.44;682473;28;1101;-84
2021/12/07 00:45:32;;;;;;;6.30;4.75;;;;;;;4.77;67.74;99843.56;692349;28;1220;-84
2021/12/07 00:45:54;;;;;;;5.72;4.80;;;;;;;4.84;67.80;99848.13;693185;28;1918;-84
2021/12/07 00:46:15;;;;;;;7.68;4.60;;;;;;;4.79;67.59;99847.09;691962;28;1054;-84
2021/12/07 00:46:36;;;;;;;8.10;4.70;;;;;;;4.83;68.20;99850.69;687987;28;831;-84
2021/12/07 00:46:57;;;;;;;7.65;4.30;;;;;;;4.79;68.20;99847.09;685030;28;989;-84
2021/12/07 00:47:18;;;;;;;4.93;4.22;;;;;;;4.81;67.86;99850.63;687673;28;1160;-84
2021/12/07 00:47:39;;;;;;;4.80;4.38;;;;;;;4.80;68.17;99846.28;687886;28;886;-84
2021/12/07 00:48:01;;;;;;;5.22;4.72;;;;;;;4.89;67.94;99861.22;690574;28;1184;-84
2021/12/07 00:48:23;;;;;;;5.13;4.57;;;;;;;4.86;67.96;99846.50;688294;28;1445;-84
2021/12/07 00:48:43;;;;;;;4.75;4.25;;;;;;;4.82;68.08;99849.78;693205;28;1117;-83
2021/12/07 00:49:04;;;;;;;4.83;4.33;;;;;;;4.82;68.10;99838.56;687770;28;1561;-84
2021/12/07 00:49:25;;;;;;;4.90;4.50;;;;;;;4.86;67.85;99849.09;684588;28;988;-84
2021/12/07 00:49:45;;;;;;;4.72;4.32;;;;;;;4.78;67.80;99834.97;686737;28;1161;-84
2021/12/07 00:50:08;;;;;;;4.70;4.30;;;;;;;4.83;67.97;99848.09;685121;28;1171;-84
2021/12/07 00:50:47;;;;;;;5.10;4.60;;;;;;;4.86;67.91;99854.25;686317;28;1272;-84
2021/12/07 00:51:07;;;;;;;4.95;4.55;;;;;;;4.78;67.80;99840.16;689770;28;1975;-84
2021/12/07 00:51:28;;;;;;;4.55;4.15;;;;;;;4.84;67.83;99842.97;690602;28;1305;-84
2021/12/07 00:51:49;;;;;;;4.63;4.20;;;;;;;4.81;68.15;99831.63;690544;28;979;-85
2021/12/07 00:52:10;;;;;;;4.97;4.40;;;;;;;4.83;67.89;99841.22;690407;28;1249;-84
2021/12/07 00:52:31;;;;;;;5.40;4.50;;;;;;;4.80;68.25;99838.53;687760;28;883;-83
2021/12/07 00:52:53;;;;;;;5.57;4.90;;;;;;;4.77;68.09;99830.63;687920;28;1061;-84
2021/12/07 00:53:14;;;;;;;6.30;4.68;;;;;;;4.81;68.15;99842.88;685054;28;1248;-83
2021/12/07 00:53:35;;;;;;;6.65;4.53;;;;;;;4.78;68.02;99834.97;688099;28;1127;-84
2021/12/07 00:53:55;;;;;;;6.68;4.07;;;;;;;4.86;68.28;99841.34;687116;28;1058;-84
2021/12/07 00:54:22;;;;;;;5.43;4.20;;;;;;;4.84;68.32;99840.38;686783;28;2193;-83
2021/12/07 00:54:43;;;;;;;5.55;4.63;;;;;;;4.85;68.05;99841.28;688115;28;2211;-84
2021/12/07 00:55:08;;;;;;;4.90;4.40;;;;;;;4.81;68.33;99837.69;684945;28;2586;-84
2021/12/07 00:55:32;;;;;;;4.70;4.30;;;;;;;4.82;68.45;99838.56;682366;29;1334;-83
2021/12/07 00:56:11;;;;;;;4.63;4.22;;;;;;;4.85;68.21;99843.84;689661;28;2468;-84
2021/12/07 00:56:32;;;;;;;6.55;5.10;;;;;;;4.86;68.26;99841.34;687800;28;2292;-84
2021/12/07 00:56:53;;;;;;;6.50;5.20;;;;;;;4.81;68.25;99832.53;686222;28;1124;-83
2021/12/07 00:57:14;;;;;;;6.00;4.80;;;;;;;4.90;67.70;99827.69;688284;28;1451;-84
2021/12/07 00:57:35;;;;;;;4.93;4.38;;;;;;;5.01;68.35;99834.94;693165;28;1547;-84
2021/12/07 00:57:58;;;;;;;4.80;4.30;;;;;;;5.07;67.84;99856.72;693228;28;896;-84
2021/12/07 00:58:24;;;;;;;4.50;4.10;;;;;;;5.06;67.71;99843.75;688761;28;1379;-84
2021/12/07 00:58:46;;;;;;;4.78;4.38;;;;;;;5.08;67.84;99842.09;689633;28;1219;-83
2021/12/07 00:59:09;;;;;;;5.00;4.55;;;;;;;4.91;67.87;99833.75;691690;28;1106;-84
2021/12/07 00:59:31;;;;;;;5.05;4.55;;;;;;;5.00;67.85;99836.66;690005;28;1234;-83
2021/12/07 00:59:52;;;;;;;5.13;4.63;;;;;;;5.13;67.69;99850.00;693282;28;976;-84
2021/12/07 01:00:15;;;;;;;4.80;4.40;;;;;;;5.05;68.19;99850.59;689457;28;1240;-83
2021/12/07 01:00:35;;;;;;;4.60;4.20;;;;;;;4.89;67.94;99836.25;690563;28;1125;-83
2021/12/07 01:01:02;;;;;;;5.00;4.50;;;;;;;4.94;68.14;99859.69;688263;28;966;-84
2021/12/07 01:01:23;;;;;;;5.88;4.95;;;;;;;4.89;68.30;99846.59;692520;28;1393;-83
2021/12/07 01:01:44;;;;;;;5.82;4.80;;;;;;;4.91;68.10;99854.44;685764;28;1083;-83
2021/12/07 01:02:04;;;;;;;5.47;4.53;;;;;;;4.98;68.47;99850.34;690499;28;1217;-84
2021/12/07 01:02:25;;;;;;;5.03;4.28;;;;;;;4.98;68.43;99837.41;687787;28;1240;-84
2021/12/07 01:02:46;;;;;;;4.87;4.37;;;;;;;5.06;68.20;99856.66;690586;28;1119;-83
2021/12/07 01:03:35;;;;;;;5.10;4.60;;;;;;;5.08;68.08;99847.25;684972;28;1037;-83
2021/12/07 01:03:56;;;;;;;5.07;4.55;;;;;;;5.05;67.97;99834.22;683157;28;1871;-84
2021/12/07 01:04:17;;;;;;;4.70;4.22;;;;;;;5.15;67.91;99846.66;684259;28;1912;-84
2021/12/07 01:04:38;;;;;;;4.80;4.30;;;;;;;5.13;67.97;99842.25;685868;28;1391;-84
2021/12/07 01:05:08;;;;;;;5.28;4.40;;;;;;;5.20;67.83;99852.88;684823;28;1401;-84
2021/12/07 01:05:31;;;;;;;5.15;4.35;;;;;;;5.15;67.67;99838.03;687723;28;838;-84
2021/12/07 01:06:04;;;;;;;4.55;4.15;;;;;;;5.13;67.85;99842.25;687711;28;1898;-84
2021/12/07 01:06:43;;;;;;;4.70;4.30;;;;;;;5.23;67.79;99858.97;690264;28;1149;-83
2021/12/07 01:07:12;;;;;;;4.88;4.38;;;;;;;5.14;67.96;99857.81;687650;28;1266;-84
2021/12/07 01:07:54;;;;;;;4.90;4.40;;;;;;;5.12;67.93;99838.78;685223;28;835;-84
2021/12/07 01:08:25;;;;;;;5.10;4.57;;;;;;;5.17;67.70;99852.75;682433;29;1140;-84
2021/12/07 01:24:49;;;;;;;4.40;4.00;;;;;;;4.92;68.59;99856.19;690573;28;811;-83
2021/12/07 01:25:09;;;;;;;4.78;4.32;;;;;;;4.96;68.92;99878.72;691651;28;1233;-83
2021/12/07 01:25:35;;;;;;;5.00;4.60;;;;;;;4.89;68.99;99867.28;684570;28;1790;-83
2021/12/07 01:25:56;;;;;;;5.00;4.50;;;;;;;5.05;68.73;99885.94;683320;28;1906;-83
2021/12/07 01:26:16;;;;;;;4.65;4.25;;;;;;;5.01;68.72;99856.50;683769;28;1056;-83
2021/12/07 01:26:37;;;;;;;4.50;4.10;;;;;;;5.07;68.59;99866.19;682520;29;1390;-83
2021/12/07 01:26:58;;;;;;;5.37;4.10;;;;;;;5.11;68.59;99865.47;684971;28;1642;-83
2021/12/07 01:27:20;;;;;;;6.50;4.30;;;;;;;5.13;68.36;99870.69;687538;28;1367;-83
2021/12/07 01:27:42;;;;;;;7.10;4.50;;;;;;;5.19;68.35;99869.22;687254;28;1009;-83
2021/12/07 01:28:12;;;;;;;5.90;4.40;;;;;;;5.23;68.13;99871.91;687764;28;1173;-83
2021/12/07 01:28:41;;;;;;;4.60;4.20;;;;;;;5.16;67.99;99863.91;682354;29;890;-83
2021/12/07 01:29:02;;;;;;;4.60;4.20;;;;;;;5.20;68.12;99868.38;685009;28;1212;-83
2021/12/07 01:29:25;;;;;;;4.53;4.13;;;;;;;5.17;67.96;99863.09;686753;28;1102;-83
2021/12/07 01:29:54;;;;;;;4.50;4.10;;;;;;;5.10;68.30;99866.31;686733;28;1144;-84
2021/12/07 01:30:35;;;;;;;5.25;4.20;;;;;;;5.09;68.51;99874.00;690288;28;1221;-83
2021/12/07 01:31:18;;;;;;;5.95;4.45;;;;;;;4.99;68.72;99871.09;687668;28;990;-83
2021/12/07 01:32:11;;;;;;;5.43;4.60;;;;;;;4.83;68.87;99856.72;687717;28;1201;-83
2021/12/07 01:32:36;;;;;;;6.60;4.60;;;;;;;4.93;69.13;99869.16;688746;28;1498;-83
2021/12/07 01:33:17;;;;;;;4.80;4.40;;;;;;;5.04;68.95;99866.09;684910;28;1160;-83
2021/12/07 01:34:22;;;;;;;4.25;3.92;;;;;;;5.06;68.53;99870.50;687010;28;1170;-83
2021/12/07 01:36:17;;;;;;;3.88;3.55;;;;;;;5.11;68.40;99865.47;682592;28;1148;-83
2021/12/07 01:41:05;;;;;;;3.70;3.40;;;;;;;5.09;68.51;99880.03;676776;29;1057;-83
2021/12/07 01:48:04;;;;;;;3.17;2.97;;;;;;;5.18;68.19;99892.44;683243;28;1314;-84
2021/12/07 01:50:08;;;;;;;3.53;3.22;;;;;;;5.20;68.22;99899.44;681925;28;821;-83
2021/12/07 01:50:36;;;;;;;3.72;3.40;;;;;;;5.19;68.18;99897.69;686961;28;1175;-83
2021/12/07 01:51:14;;;;;;;3.60;3.30;;;;;;;5.22;68.26;99909.84;682370;29;1252;-83
2021/12/07 01:59:33;;;;;;;3.83;3.53;;;;;;;5.17;67.52;99898.44;687022;28;1455;-83
2021/12/07 01:59:54;;;;;;;3.80;3.50;;;;;;;5.18;67.91;99901.09;687751;28;1060;-83
2021/12/07 02:00:17;;;;;;;3.78;3.47;;;;;;;5.23;68.18;99910.69;687642;28;1300;-83
2021/12/07 02:00:43;;;;;;;5.63;3.50;;;;;;;5.24;68.25;99921.13;683294;28;974;-83
2021/12/07 02:01:06;;;;;;;6.03;3.60;;;;;;;5.15;68.20;99913.03;687507;28;1197;-83
2021/12/07 02:01:26;;;;;;;5.80;3.80;;;;;;;5.12;68.32;99905.13;685051;28;1478;-83
2021/12/07 02:01:47;;;;;;;4.57;4.00;;;;;;;5.14;68.13;99909.53;689314;28;1124;-83
2021/12/07 02:02:10;;;;;;;4.37;3.87;;;;;;;5.14;67.82;99909.53;690119;28;1304;-83
2021/12/07 02:02:31;;;;;;;3.88;3.42;;;;;;;5.07;67.96;99899.81;682481;29;863;-83
2021/12/07 02:02:52;;;;;;;3.70;3.30;;;;;;;5.17;67.99;99914.81;684849;28;1292;-83
2021/12/07 02:03:13;;;;;;;3.60;3.30;;;;;;;5.15;68.36;99906.13;685689;28;1083;-83
2021/12/07 02:03:34;;;;;;;3.60;3.30;;;;;;;5.12;68.11;99906.03;687811;28;743;-83
2021/12/07 02:03:55;;;;;;;3.50;3.20;;;;;;;5.09;68.37;99916.25;685962;28;1732;-83
2021/12/07 02:04:16;;;;;;;4.10;3.50;;;;;;;5.14;68.35;99914.72;684927;28;1133;-83
2021/12/07 02:04:38;;;;;;;4.00;3.50;;;;;;;5.12;68.18;99908.63;687684;28;1263;-83
2021/12/07 02:04:59;;;;;;;3.78;3.47;;;;;;;5.15;68.41;99911.31;689268;28;1503;-83
2021/12/07 02:05:23;;;;;;;3.90;3.60;;;;;;;5.17;68.32;99909.66;692607;28;1039;-83
2021/12/07 02:05:44;;;;;;;4.20;3.90;;;;;;;5.18;67.88;99916.59;685006;28;1994;-83
2021/12/07 02:06:05;;;;;;;4.03;3.72;;;;;;;5.24;68.03;99921.13;682396;28;1105;-83
2021/12/07 02:06:25;;;;;;;4.07;3.70;;;;;;;5.18;68.42;99914.03;689103;28;1385;-83
2021/12/07 02:06:46;;;;;;;3.80;3.50;;;;;;;5.16;68.27;99910.47;687633;28;989;-83
2021/12/07 02:07:08;;;;;;;3.97;3.58;;;;;;;5.17;68.11;99917.41;690208;28;1099;-83
2021/12/07 02:07:31;;;;;;;3.70;3.40;;;;;;;5.17;67.83;99912.22;685124;28;879;-83
2021/12/07 02:07:52;;;;;;;3.67;3.38;;;;;;;5.23;68.12;99915.88;684863;28;1016;-83
2021/12/07 02:08:14;;;;;;;3.80;3.50;;;;;;;5.20;68.10;99911.47;687040;28;1030;-83
2021/12/07 02:08:35;;;;;;;3.90;3.60;;;;;;;5.19;67.99;99918.38;687781;28;1071;-83
2021/12/07 02:08:56;;;;;;;4.05;3.70;;;;;;;5.15;67.89;99915.63;680971;28;1746;-83
2021/12/07 02:09:17;;;;;;;4.00;3.70;;;;;;;5.13;68.24;99918.13;686397;28;1432;-83
2021/12/07 02:09:41;;;;;;;3.92;3.60;;;;;;;5.13;67.96;99915.56;682540;28;1297;-83
2021/12/07 02:10:09;;;;;;;3.70;3.40;;;;;;;5.19;68.19;99917.47;685501;28;1370;-83
2021/12/07 02:10:31;;;;;;;4.00;3.70;;;;;;;5.15;68.17;99915.63;685632;28;820;-83
2021/12/07 02:11:01;;;;;;;4.10;3.70;;;;;;;5.10;68.15;99902.53;690908;28;953;-83
2021/12/07 02:11:23;;;;;;;3.60;3.30;;;;;;;5.24;68.47;99925.41;690369;28;1194;-83
2021/12/07 02:11:48;;;;;;;3.78;3.40;;;;;;;5.19;68.23;99917.47;688292;28;1392;-83
2021/12/07 02:12:12;;;;;;;3.75;3.45;;;;;;;5.18;68.29;99914.03;685460;28;1245;-83
2021/12/07 02:12:42;;;;;;;3.97;3.58;;;;;;;5.25;67.96;99927.16;685493;28;1225;-83
2021/12/07 02:13:17;;;;;;;3.60;3.30;;;;;;;5.19;68.13;99915.78;682576;28;1176;-83
2021/12/07 02:14:20;;;;;;;3.55;3.35;;;;;;;5.17;68.22;99908.78;686306;28;1213;-82
2021/12/07 02:14:43;;;;;;;3.55;3.35;;;;;;;5.17;68.15;99914.81;686924;28;984;-83
2021/12/07 02:15:04;;;;;;;3.70;3.40;;;;;;;5.17;67.75;99913.97;684026;28;1730;-83
2021/12/07 02:15:25;;;;;;;4.00;3.60;;;;;;;5.19;68.21;99918.38;688254;28;1361;-83
2021/12/07 02:15:46;;;;;;;3.97;3.58;;;;;;;5.19;67.85;99913.19;690925;28;1375;-83
2021/12/07 02:16:10;;;;;;;3.60;3.30;;;;;;;5.28;68.21;99932.47;688720;28;993;-83
2021/12/07 02:16:32;;;;;;;3.50;3.20;;;;;;;5.22;68.05;99919.28;693777;28;976;-83
2021/12/07 02:16:57;;;;;;;3.58;3.28;;;;;;;5.28;68.20;99930.72;691068;28;922;-83
2021/12/07 02:17:22;;;;;;;3.80;3.50;;;;;;;5.23;68.10;99919.34;685488;28;1311;-83
2021/12/07 02:17:46;;;;;;;4.00;3.70;;;;;;;5.22;68.20;99922.78;687218;28;1047;-83
2021/12/07 02:18:06;;;;;;;3.80;3.50;;;;;;;5.20;68.41;99919.22;688108;28;1311;-82
2021/12/07 02:18:28;;;;;;;3.90;3.60;;;;;;;5.18;68.17;99920.88;690917;28;1137;-83
2021/12/07 02:18:48;;;;;;;3.88;3.58;;;;;;;5.12;67.73;99911.22;690848;28;1202;-83
2021/12/07 02:19:09;;;;;;;4.10;3.75;;;;;;;5.15;68.59;99924.25;691431;28;1279;-83
2021/12/07 02:19:30;;;;;;;4.15;3.75;;;;;;;5.11;68.42;99914.63;691555;28;794;-83
2021/12/07 02:19:50;;;;;;;3.95;3.60;;;;;;;5.11;68.14;99916.31;690934;28;1058;-83
2021/12/07 02:20:13;;;;;;;3.83;3.53;;;;;;;5.10;68.10;99917.16;688275;28;1078;-83
2021/12/07 02:20:34;;;;;;;3.80;3.50;;;;;;;5.17;68.29;99919.13;691061;28;1376;-84
2021/12/07 02:20:54;;;;;;;3.95;3.65;;;;;;;5.18;68.31;99926.06;688094;28;1038;-83
2021/12/07 02:21:19;;;;;;;3.97;3.67;;;;;;;5.17;68.24;99932.94;690815;28;1111;-83
2021/12/07 02:21:43;;;;;;;4.10;3.80;;;;;;;5.09;68.36;99916.25;690921;28;1318;-83
2021/12/07 02:22:11;;;;;;;3.83;3.53;;;;;;;5.13;68.43;99925.91;688167;28;1234;-83
2021/12/07 02:22:55;;;;;;;3.70;3.40;;;;;;;5.09;68.23;99916.25;688187;28;1269;-83
2021/12/07 02:23:17;;;;;;;3.80;3.50;;;;;;;5.07;68.21;99904.97;688018;28;1219;-85
2021/12/07 02:23:38;;;;;;;4.63;3.80;;;;;;;5.12;68.13;99929.31;687986;28;867;-86
2021/12/07 02:23:59;;;;;;;3.80;3.40;;;;;;;5.09;68.39;99925.72;689070;28;1889;-85
2021/12/07 02:24:20;;;;;;;3.42;3.13;;;;;;;5.11;68.46;99926.66;688138;28;1029;-85
2021/12/07 02:24:40;;;;;;;3.20;3.00;;;;;;;5.08;68.41;99914.50;688803;28;1387;-86
2021/12/07 02:25:03;;;;;;;3.40;3.20;;;;;;;5.14;68.36;99929.34;685650;28;795;-86
2021/12/07 02:25:24;;;;;;;3.80;3.50;;;;;;;5.06;68.42;99922.22;685626;28;1537;-86
2021/12/07 02:25:45;;;;;;;4.03;3.70;;;;;;;5.07;68.57;99923.06;689565;28;2068;-86
2021/12/07 02:26:06;;;;;;;4.00;3.70;;;;;;;5.14;68.46;99935.41;685466;28;1371;-86
2021/12/07 02:26:26;;;;;;;4.40;3.67;;;;;;;5.06;68.42;99922.22;685567;28;787;-86
2021/12/07 02:26:47;;;;;;;4.95;3.60;;;;;;;5.09;68.52;99921.41;688290;28;958;-86
2021/12/07 02:27:08;;;;;;;4.55;3.50;;;;;;;5.06;68.50;99913.56;683076;28;1533;-86
2021/12/07 02:27:36;;;;;;;3.80;3.40;;;;;;;5.15;68.22;99932.00;689171;28;1457;-86
2021/12/07 02:27:59;;;;;;;3.70;3.40;;;;;;;5.17;68.49;99940.69;685504;28;950;-86
2021/12/07 02:28:21;;;;;;;3.78;3.47;;;;;;;5.11;68.43;99930.13;689892;28;1392;-86
2021/12/07 02:28:42;;;;;;;3.50;3.30;;;;;;;5.11;68.47;99937.91;688493;28;1321;-86
2021/12/07 02:29:04;;;;;;;3.43;3.23;;;;;;;4.99;68.51;99919.34;685854;28;1186;-86
2021/12/07 02:29:25;;;;;;;3.58;3.30;;;;;;;5.03;68.40;99926.41;687730;28;1427;-86
2021/12/07 02:29:46;;;;;;;4.03;3.63;;;;;;;4.95;68.46;99923.50;690891;28;1014;-85
2021/12/07 02:30:10;;;;;;;4.30;3.90;;;;;;;4.98;68.74;99946.91;690851;28;1143;-85
2021/12/07 02:30:32;;;;;;;4.30;3.90;;;;;;;4.99;68.97;99940.03;688102;28;1428;-86
2021/12/07 02:30:52;;;;;;;4.00;3.70;;;;;;;4.97;68.91;99932.19;690649;28;1179;-86
2021/12/07 02:31:13;;;;;;;4.10;3.72;;;;;;;4.95;68.75;99928.69;690787;28;1145;-86
2021/12/07 02:31:34;;;;;;;4.20;3.80;;;;;;;5.01;68.68;99933.19;690993;28;1366;-86
2021/12/07 02:31:57;;;;;;;4.45;4.00;;;;;;;5.01;68.54;99930.59;690813;28;1104;-86
2021/12/07 02:32:18;;;;;;;4.72;4.22;;;;;;;4.99;68.57;99932.25;687717;28;1111;-86
2021/12/07 02:32:39;;;;;;;4.53;4.13;;;;;;;5.07;68.85;99946.34;683544;28;1534;-85
2021/12/07 02:33:01;;;;;;;4.43;4.03;;;;;;;5.07;68.65;99939.50;682970;29;1001;-86
2021/12/07 02:33:22;;;;;;;4.10;3.80;;;;;;;5.04;68.67;99935.91;686076;28;1159;-86
2021/12/07 02:33:42;;;;;;;4.30;3.90;;;;;;;5.03;68.51;99936.72;688250;28;1131;-86
2021/12/07 02:34:04;;;;;;;4.30;3.90;;;;;;;5.00;68.56;99932.31;689486;28;1070;-86
2021/12/07 02:34:25;;;;;;;4.40;4.00;;;;;;;5.11;68.59;99950.84;685597;28;1100;-86
2021/12/07 02:34:57;;;;;;;4.28;3.97;;;;;;;4.97;68.44;99937.38;687394;28;1290;-86
2021/12/07 02:35:24;;;;;;;4.55;4.15;;;;;;;5.00;68.14;99944.34;687889;28;1150;-86
2021/12/07 02:35:48;;;;;;;4.25;3.95;;;;;;;4.96;68.66;99945.09;687420;28;1219;-85
2021/12/07 02:36:09;;;;;;;4.20;3.80;;;;;;;5.02;68.88;99960.81;695997;28;1238;-86
2021/12/07 02:36:50;;;;;;;4.30;3.90;;;;;;;5.04;68.79;99959.19;693525;28;772;-86
2021/12/07 02:37:12;;;;;;;4.93;4.53;;;;;;;4.96;68.59;99965.78;682766;28;1247;-83
2021/12/07 02:37:37;;;;;;;4.80;4.40;;;;;;;4.94;68.60;99963.13;682973;28;1113;-83